createdAt,value
2017-09-26T00:00:39.053Z,20.03
2017-09-26T00:03:05.425Z,19.03
2017-09-26T00:05:32.495Z,19.40
2017-09-26T00:07:59.584Z,18.60
2017-09-26T00:10:25.950Z,19.17
2017-09-26T00:12:52.306Z,17.90
2017-09-26T00:15:18.673Z,19.40
2017-09-26T00:17:45.719Z,17.50
2017-09-26T00:20:12.166Z,17.93
2017-09-26T00:22:38.525Z,19.27
2017-09-26T00:25:04.854Z,18.40
2017-09-26T00:27:31.199Z,17.37
2017-09-26T00:29:58.292Z,18.33
2017-09-26T00:32:25.457Z,17.53
2017-09-26T00:34:51.844Z,19.53
2017-09-26T00:37:18.238Z,19.17
2017-09-26T00:39:45.443Z,18.70
2017-09-26T00:42:11.796Z,20.13
2017-09-26T00:44:38.152Z,19.57
2017-09-26T00:47:04.478Z,19.20
2017-09-26T00:49:30.846Z,20.10
2017-09-26T00:51:57.922Z,20.67
2017-09-26T00:54:24.317Z,21.97
2017-09-26T00:56:51.422Z,18.83
2017-09-26T00:59:17.797Z,20.00
2017-09-26T01:01:44.163Z,20.70
2017-09-26T01:04:14.303Z,20.73
2017-09-26T01:06:46.799Z,20.87
2017-09-26T01:09:13.933Z,18.37
2017-09-26T01:11:40.272Z,22.03
2017-09-26T01:14:06.643Z,21.73
2017-09-26T01:16:33.006Z,23.80
2017-09-26T01:18:59.333Z,23.27
2017-09-26T01:21:25.713Z,23.03
2017-09-26T01:23:52.817Z,24.70
2017-09-26T01:26:19.192Z,23.70
2017-09-26T01:28:46.289Z,23.23
2017-09-26T01:31:12.634Z,23.80
2017-09-26T01:33:38.953Z,24.00
2017-09-26T01:36:05.291Z,24.03
2017-09-26T01:38:31.639Z,23.97
2017-09-26T01:41:11.311Z,23.57
2017-09-26T01:43:37.618Z,23.80
2017-09-26T01:46:03.961Z,25.80
2017-09-26T01:48:30.320Z,25.33
2017-09-26T01:50:57.398Z,24.00
2017-09-26T01:53:23.759Z,25.93
2017-09-26T01:55:50.114Z,25.70
2017-09-26T01:58:33.096Z,26.00
2017-09-26T02:00:59.463Z,26.93
2017-09-26T02:03:26.567Z,25.17
2017-09-26T02:05:52.918Z,27.37
2017-09-26T02:08:20.757Z,26.60
2017-09-26T02:10:47.102Z,28.00
2017-09-26T02:13:13.716Z,28.20
2017-09-26T02:15:40.139Z,26.13
2017-09-26T02:18:06.467Z,28.53
2017-09-26T02:20:32.794Z,26.60
2017-09-26T02:22:59.129Z,28.03
2017-09-26T02:25:25.442Z,27.30
2017-09-26T02:27:51.789Z,26.33
2017-09-26T02:30:18.140Z,27.93
2017-09-26T02:32:44.525Z,27.37
2017-09-26T02:35:11.704Z,28.40
2017-09-26T02:37:38.039Z,28.13
2017-09-26T02:40:04.381Z,31.30
2017-09-26T02:42:31.616Z,30.70
2017-09-26T02:44:57.958Z,28.30
2017-09-26T02:47:24.281Z,28.10
2017-09-26T02:49:50.657Z,29.07
2017-09-26T02:52:17.747Z,31.30
2017-09-26T02:54:44.093Z,29.17
2017-09-26T02:57:10.436Z,30.63
2017-09-26T02:59:37.745Z,30.33
2017-09-26T03:02:04.831Z,29.97
2017-09-26T03:04:31.182Z,30.07
2017-09-26T03:06:57.521Z,31.90
2017-09-26T03:09:25.366Z,31.30
2017-09-26T03:11:51.689Z,31.77
2017-09-26T03:14:18.033Z,32.00
2017-09-26T03:16:44.373Z,31.53
2017-09-26T03:19:10.698Z,30.17
2017-09-26T03:21:37.049Z,30.03
2017-09-26T03:24:03.393Z,31.60
2017-09-26T03:26:30.495Z,32.73
2017-09-26T03:28:57.567Z,33.03
2017-09-26T03:31:24.741Z,34.53
2017-09-26T03:33:51.819Z,33.83
2017-09-26T03:36:18.184Z,33.67
2017-09-26T03:38:44.532Z,34.40
2017-09-26T03:41:11.623Z,34.30
2017-09-26T03:43:37.948Z,33.73
2017-09-26T03:46:04.314Z,32.40
2017-09-26T03:48:30.646Z,32.73
2017-09-26T03:50:56.986Z,33.40
2017-09-26T03:53:23.356Z,33.80
2017-09-26T03:55:50.443Z,33.97
2017-09-26T03:58:16.830Z,33.73
2017-09-26T04:00:43.953Z,34.80
2017-09-26T04:03:10.351Z,33.60
2017-09-26T04:05:36.690Z,35.00
2017-09-26T04:08:03.105Z,34.07
2017-09-26T04:10:29.456Z,34.00
2017-09-26T04:12:55.817Z,35.43
2017-09-26T04:15:22.922Z,36.50
2017-09-26T04:17:49.308Z,36.30
2017-09-26T04:20:16.372Z,36.20
2017-09-26T04:22:43.583Z,34.60
2017-09-26T04:25:09.964Z,34.57
2017-09-26T04:27:36.318Z,36.90
2017-09-26T04:30:02.717Z,37.90
2017-09-26T04:32:29.820Z,36.43
2017-09-26T04:34:56.161Z,36.80
2017-09-26T04:37:22.533Z,35.67
2017-09-26T04:39:48.910Z,37.80
2017-09-26T04:42:15.284Z,36.73
2017-09-26T04:44:42.380Z,38.63
2017-09-26T04:47:08.710Z,37.57
2017-09-26T04:49:35.066Z,37.83
2017-09-26T04:52:01.414Z,38.00
2017-09-26T04:54:28.542Z,36.93
2017-09-26T04:56:54.871Z,37.63
2017-09-26T04:59:21.275Z,37.53
2017-09-26T05:01:47.607Z,37.70
2017-09-26T05:04:13.894Z,36.70
2017-09-26T05:06:41.178Z,35.73
2017-09-26T05:09:07.450Z,35.23
2017-09-26T05:11:33.734Z,36.67
2017-09-26T05:14:00.856Z,37.80
2017-09-26T05:16:27.888Z,37.03
2017-09-26T05:18:54.929Z,35.97
2017-09-26T05:21:21.233Z,36.80
2017-09-26T05:23:47.511Z,37.37
2017-09-26T05:26:14.536Z,36.63
2017-09-26T05:28:40.902Z,37.97
2017-09-26T05:31:07.296Z,36.50
2017-09-26T05:33:34.435Z,35.27
2017-09-26T05:36:01.549Z,37.20
2017-09-26T05:38:27.899Z,34.97
2017-09-26T05:40:54.215Z,34.87
2017-09-26T05:43:20.516Z,34.60
2017-09-26T05:45:47.767Z,35.07
2017-09-26T05:48:14.171Z,36.53
2017-09-26T05:50:40.543Z,34.37
2017-09-26T05:53:07.632Z,35.73
2017-09-26T05:55:33.928Z,35.80
2017-09-26T05:58:00.235Z,34.67
2017-09-26T06:00:27.262Z,37.63
2017-09-26T06:02:54.342Z,37.30
2017-09-26T06:05:20.642Z,38.90
2017-09-26T06:07:47.708Z,39.93
2017-09-26T06:10:14.735Z,38.63
2017-09-26T06:12:41.896Z,41.13
2017-09-26T06:15:08.914Z,42.80
2017-09-26T06:17:35.215Z,41.37
2017-09-26T06:20:01.526Z,41.77
2017-09-26T06:22:27.818Z,42.70
2017-09-26T06:24:54.110Z,46.93
2017-09-26T06:27:20.397Z,48.47
2017-09-26T06:29:46.688Z,47.30
2017-09-26T06:32:13.013Z,48.73
2017-09-26T06:34:39.328Z,49.90
2017-09-26T06:37:05.622Z,46.93
2017-09-26T06:39:31.930Z,47.07
2017-09-26T06:41:58.997Z,51.80
2017-09-26T06:44:25.297Z,46.97
2017-09-26T06:46:52.342Z,50.47
2017-09-26T06:49:19.388Z,52.97
2017-09-26T06:51:46.428Z,48.77
2017-09-26T06:54:12.751Z,52.10
2017-09-26T06:56:39.060Z,48.33
2017-09-26T06:59:05.383Z,48.87
2017-09-26T07:01:33.561Z,51.87
2017-09-26T07:03:59.853Z,48.10
2017-09-26T07:06:26.898Z,47.97
2017-09-26T07:08:53.929Z,47.70
2017-09-26T07:11:20.996Z,50.17
2017-09-26T07:13:47.299Z,49.47
2017-09-26T07:16:14.392Z,48.90
2017-09-26T07:18:40.685Z,49.23
2017-09-26T07:21:08.458Z,46.60
2017-09-26T07:23:34.786Z,46.57
2017-09-26T07:26:01.868Z,45.50
2017-09-26T07:28:28.186Z,44.50
2017-09-26T07:30:54.482Z,46.10
2017-09-26T07:33:21.529Z,43.93
2017-09-26T07:35:47.871Z,44.17
2017-09-26T07:38:14.898Z,47.37
2017-09-26T07:40:41.197Z,43.43
2017-09-26T07:43:07.505Z,43.43
2017-09-26T07:45:33.821Z,45.20
2017-09-26T07:48:00.150Z,44.10
2017-09-26T07:50:27.383Z,42.20
2017-09-26T07:52:55.185Z,41.93
2017-09-26T07:55:21.491Z,41.50
2017-09-26T07:57:48.543Z,42.30
2017-09-26T08:00:14.838Z,40.10
2017-09-26T08:02:41.830Z,43.60
2017-09-26T08:05:09.236Z,41.77
2017-09-26T08:07:36.700Z,42.63
2017-09-26T08:10:03.281Z,41.90
2017-09-26T08:12:29.600Z,40.63
2017-09-26T08:14:55.894Z,40.17
2017-09-26T08:17:22.211Z,39.77
2017-09-26T08:19:48.515Z,42.63
2017-09-26T08:22:14.810Z,40.77
2017-09-26T08:24:41.116Z,37.10
2017-09-26T08:27:07.469Z,38.87
2017-09-26T08:29:34.500Z,38.40
2017-09-26T08:32:01.558Z,36.97
2017-09-26T08:34:28.599Z,40.60
2017-09-26T08:36:55.666Z,40.77
2017-09-26T08:39:21.966Z,40.07
2017-09-26T08:41:48.271Z,38.53
2017-09-26T08:44:14.565Z,40.50
2017-09-26T08:46:40.866Z,38.43
2017-09-26T08:49:07.934Z,37.87
2017-09-26T08:51:34.994Z,36.23
2017-09-26T08:54:01.564Z,36.83
2017-09-26T08:56:27.865Z,36.97
2017-09-26T08:58:54.178Z,39.07
2017-09-26T09:01:20.469Z,36.90
2017-09-26T09:03:47.513Z,38.43
2017-09-26T09:06:13.814Z,37.30
2017-09-26T09:08:40.950Z,36.60
2017-09-26T09:11:07.251Z,40.83
2017-09-26T09:13:34.302Z,35.47
2017-09-26T09:16:00.608Z,37.47
2017-09-26T09:18:27.670Z,37.27
2017-09-26T09:20:54.711Z,36.93
2017-09-26T09:23:21.768Z,36.33
2017-09-26T09:25:48.078Z,36.33
2017-09-26T09:28:15.141Z,39.03
2017-09-26T09:30:41.474Z,36.63
2017-09-26T09:33:08.536Z,35.30
2017-09-26T09:35:34.887Z,36.03
2017-09-26T09:38:01.188Z,36.67
2017-09-26T09:40:28.261Z,38.83
2017-09-26T09:42:54.573Z,38.53
2017-09-26T09:45:21.614Z,34.43
2017-09-26T09:47:48.645Z,37.77
2017-09-26T09:50:15.709Z,37.03
2017-09-26T09:52:43.556Z,36.37
2017-09-26T09:55:09.874Z,34.20
2017-09-26T09:57:36.183Z,37.60
2017-09-26T10:00:03.027Z,36.93
2017-09-26T10:02:30.833Z,35.60
2017-09-26T10:04:57.880Z,38.10
2017-09-26T10:07:24.950Z,35.20
2017-09-26T10:09:51.263Z,37.30
2017-09-26T10:12:17.598Z,35.77
2017-09-26T10:14:43.916Z,36.80
2017-09-26T10:17:10.964Z,37.80
2017-09-26T10:19:38.003Z,34.40
2017-09-26T10:22:05.050Z,34.13
2017-09-26T10:24:32.091Z,32.83
2017-09-26T10:26:59.887Z,32.73
2017-09-26T10:29:26.203Z,34.93
2017-09-26T10:31:53.256Z,36.07
2017-09-26T10:34:20.320Z,33.80
2017-09-26T10:36:46.621Z,33.90
2017-09-26T10:39:13.666Z,32.30
2017-09-26T10:41:40.718Z,33.70
2017-09-26T10:44:07.760Z,34.27
2017-09-26T10:46:34.817Z,33.77
2017-09-26T10:49:01.870Z,32.07
2017-09-26T10:51:28.200Z,32.30
2017-09-26T10:53:54.527Z,33.57
2017-09-26T10:56:21.565Z,33.23
2017-09-26T10:58:48.583Z,30.73
2017-09-26T11:01:14.886Z,33.57
2017-09-26T11:03:41.202Z,33.60
2017-09-26T11:06:07.504Z,32.70
2017-09-26T11:08:33.829Z,32.80
2017-09-26T11:11:00.868Z,32.97
2017-09-26T11:13:27.931Z,34.00
2017-09-26T11:15:54.997Z,32.00
2017-09-26T11:18:21.344Z,31.33
2017-09-26T11:20:47.645Z,34.27
2017-09-26T11:23:13.981Z,33.47
2017-09-26T11:25:40.251Z,30.77
2017-09-26T11:28:06.538Z,33.13
2017-09-26T11:30:32.832Z,31.00
2017-09-26T11:32:59.159Z,33.23
2017-09-26T11:35:25.434Z,34.67
2017-09-26T11:37:51.755Z,31.13
2017-09-26T11:40:18.041Z,29.97
2017-09-26T11:42:44.330Z,29.03
2017-09-26T11:45:10.658Z,29.80
2017-09-26T11:47:36.978Z,29.20
2017-09-26T11:50:04.023Z,29.90
2017-09-26T11:52:30.358Z,29.87
2017-09-26T11:54:56.679Z,28.83
2017-09-26T11:57:23.009Z,29.80
2017-09-26T11:59:50.087Z,29.87
2017-09-26T12:02:16.360Z,28.57
2017-09-26T12:04:43.403Z,30.80
2017-09-26T12:07:09.704Z,29.33
2017-09-26T12:09:36.765Z,28.83
2017-09-26T12:12:03.059Z,26.30
2017-09-26T12:14:29.399Z,28.90
2017-09-26T12:16:55.735Z,33.97
2017-09-26T12:19:23.027Z,28.90
2017-09-26T12:21:49.349Z,29.07
2017-09-26T12:24:17.127Z,27.33
2017-09-26T12:26:44.181Z,26.30
2017-09-26T12:29:11.228Z,28.43
2017-09-26T12:31:38.290Z,25.87
2017-09-26T12:34:05.321Z,27.77
2017-09-26T12:36:32.381Z,27.03
2017-09-26T12:38:58.718Z,29.07
2017-09-26T12:41:25.016Z,26.83
2017-09-26T12:43:52.875Z,28.27
2017-09-26T12:46:19.938Z,27.10
2017-09-26T12:48:47.996Z,26.47
2017-09-26T12:51:14.323Z,26.63
2017-09-26T12:53:40.847Z,26.77
2017-09-26T12:56:08.632Z,26.77
2017-09-26T12:58:34.949Z,26.67
2017-09-26T13:01:01.265Z,27.77
2017-09-26T13:03:27.566Z,28.37
2017-09-26T13:05:53.858Z,28.83
2017-09-26T13:08:20.911Z,26.57
2017-09-26T13:10:47.958Z,25.67
2017-09-26T13:13:15.007Z,26.23
2017-09-26T13:15:41.320Z,27.37
2017-09-26T13:18:07.617Z,23.00
2017-09-26T13:20:33.888Z,25.30
2017-09-26T13:23:00.941Z,24.40
2017-09-26T13:25:27.516Z,24.33
2017-09-26T13:27:53.808Z,23.97
2017-09-26T13:30:20.868Z,23.90
2017-09-26T13:32:47.182Z,22.20
2017-09-26T13:35:14.230Z,23.10
2017-09-26T13:37:41.275Z,23.63
2017-09-26T13:40:08.330Z,21.57
2017-09-26T13:42:34.664Z,22.93
2017-09-26T13:45:01.147Z,22.30
2017-09-26T13:47:27.425Z,23.57
2017-09-26T13:49:54.447Z,22.73
2017-09-26T13:52:20.732Z,20.97
2017-09-26T13:54:47.040Z,21.83
2017-09-26T13:57:13.351Z,21.30
2017-09-26T13:59:40.391Z,22.43
2017-09-26T14:02:06.674Z,22.53
2017-09-26T14:04:32.999Z,21.50
2017-09-26T14:06:59.304Z,21.90
2017-09-26T14:09:26.347Z,20.40
2017-09-26T14:11:52.681Z,22.67
2017-09-26T14:14:19.014Z,21.97
2017-09-26T14:16:45.311Z,19.70
2017-09-26T14:19:12.398Z,18.90
2017-09-26T14:21:38.718Z,20.13
2017-09-26T14:24:05.038Z,19.00
2017-09-26T14:26:32.075Z,19.53
2017-09-26T14:28:59.097Z,18.77
2017-09-26T14:31:25.415Z,19.70
2017-09-26T14:33:51.708Z,17.97
2017-09-26T14:36:18.039Z,19.20
2017-09-26T14:38:45.077Z,19.47
2017-09-26T14:41:12.123Z,19.10
2017-09-26T14:43:39.167Z,18.93
2017-09-26T14:46:06.226Z,19.23
2017-09-26T14:48:32.556Z,21.13
2017-09-26T14:50:59.401Z,20.70
2017-09-26T14:53:25.758Z,22.13
2017-09-26T14:55:52.086Z,19.90
2017-09-26T14:58:18.422Z,21.97
2017-09-26T15:00:44.716Z,19.50
2017-09-26T15:03:11.067Z,19.10
2017-09-26T15:05:37.356Z,18.53
2017-09-26T15:08:03.681Z,19.27
2017-09-26T15:10:30.726Z,19.00
2017-09-26T15:12:57.792Z,18.70
2017-09-26T15:15:24.134Z,18.67
2017-09-26T15:17:50.506Z,18.87
2017-09-26T15:20:16.812Z,20.20
2017-09-26T15:22:43.135Z,19.30
2017-09-26T15:25:09.440Z,19.50
2017-09-26T15:27:36.480Z,19.67
2017-09-26T15:30:03.535Z,18.60
2017-09-26T15:32:30.581Z,19.03
2017-09-26T15:34:57.645Z,19.70
2017-09-26T15:37:23.962Z,19.73
2017-09-26T15:39:51.018Z,20.17
2017-09-26T15:42:17.347Z,21.20
2017-09-26T15:44:43.691Z,19.47
2017-09-26T15:47:10.012Z,19.47
2017-09-26T15:49:36.327Z,21.60
2017-09-26T15:52:03.371Z,21.47
2017-09-26T15:54:30.435Z,20.67
2017-09-26T15:56:57.484Z,22.80
2017-09-26T15:59:23.840Z,20.70
2017-09-26T16:01:50.145Z,22.50
2017-09-26T16:04:16.452Z,21.10
2017-09-26T16:06:43.501Z,22.90
2017-09-26T16:09:09.778Z,21.30
2017-09-26T16:11:36.082Z,23.83
2017-09-26T16:14:02.389Z,22.20
2017-09-26T16:16:29.498Z,22.70
2017-09-26T16:18:55.804Z,23.30
2017-09-26T16:21:22.122Z,22.40
2017-09-26T16:23:48.431Z,23.33
2017-09-26T16:26:15.488Z,23.57
2017-09-26T16:28:41.791Z,21.47
2017-09-26T16:31:08.106Z,24.30
2017-09-26T16:33:35.179Z,23.80
2017-09-26T16:36:02.247Z,23.93
2017-09-26T16:38:28.535Z,23.40
2017-09-26T16:40:54.837Z,23.77
2017-09-26T16:43:21.138Z,24.83
2017-09-26T16:45:47.432Z,26.67
2017-09-26T16:48:13.735Z,26.50
2017-09-26T16:50:40.055Z,26.90
2017-09-26T16:53:07.269Z,28.00
2017-09-26T16:55:33.599Z,27.17
2017-09-26T16:57:59.958Z,27.30
2017-09-26T17:00:26.299Z,26.87
2017-09-26T17:02:52.656Z,28.17
2017-09-26T17:05:18.958Z,28.80
2017-09-26T17:07:45.272Z,26.93
2017-09-26T17:10:11.613Z,28.27
2017-09-26T17:12:37.922Z,29.57
2017-09-26T17:15:04.246Z,27.57
2017-09-26T17:17:31.286Z,28.20
2017-09-26T17:19:57.650Z,28.37
2017-09-26T17:22:24.013Z,29.23
2017-09-26T17:24:50.277Z,26.40
2017-09-26T17:27:17.315Z,28.13
2017-09-26T17:29:44.363Z,27.80
2017-09-26T17:32:11.404Z,30.60
2017-09-26T17:34:38.478Z,29.80
2017-09-26T17:37:04.754Z,31.00
2017-09-26T17:39:31.064Z,29.83
2017-09-26T17:41:57.414Z,29.90
2017-09-26T17:44:23.707Z,30.23
2017-09-26T17:46:50.011Z,30.40
2017-09-26T17:49:17.067Z,31.93
2017-09-26T17:51:43.357Z,30.83
2017-09-26T17:54:09.678Z,32.07
2017-09-26T17:56:35.952Z,31.63
2017-09-26T17:59:02.253Z,34.17
2017-09-26T18:01:28.569Z,32.20
2017-09-26T18:03:54.885Z,33.53
2017-09-26T18:06:21.261Z,32.97
2017-09-26T18:08:47.630Z,33.77
2017-09-26T18:11:13.941Z,32.53
2017-09-26T18:13:40.248Z,31.30
2017-09-26T18:16:06.592Z,35.07
2017-09-26T18:18:33.635Z,33.93
2017-09-26T18:21:00.808Z,33.57
2017-09-26T18:23:27.923Z,33.50
2017-09-26T18:25:54.981Z,33.83
2017-09-26T18:28:22.010Z,34.20
2017-09-26T18:30:49.828Z,33.50
2017-09-26T18:33:16.168Z,34.03
2017-09-26T18:35:42.461Z,35.40
2017-09-26T18:38:09.542Z,36.33
2017-09-26T18:40:35.998Z,35.00
2017-09-26T18:43:02.279Z,35.90
2017-09-26T18:45:28.625Z,34.43
2017-09-26T18:47:54.911Z,34.40
2017-09-26T18:50:21.246Z,34.07
2017-09-26T18:52:48.461Z,35.77
2017-09-26T18:55:15.724Z,35.13
2017-09-26T18:57:42.483Z,34.37
2017-09-26T19:00:08.886Z,34.63
2017-09-26T19:02:35.583Z,35.67
2017-09-26T19:05:01.967Z,35.97
2017-09-26T19:07:28.351Z,32.90
2017-09-26T19:09:54.967Z,36.57
2017-09-26T19:12:22.080Z,35.90
2017-09-26T19:14:48.375Z,35.33
2017-09-26T19:17:14.806Z,35.33
2017-09-26T19:19:41.483Z,34.43
2017-09-26T19:22:09.017Z,35.37
2017-09-26T19:24:35.957Z,34.07
2017-09-26T19:27:03.310Z,35.87
2017-09-26T19:29:29.668Z,37.40
2017-09-26T19:31:55.998Z,36.90
2017-09-26T19:34:22.339Z,36.43
2017-09-26T19:36:48.680Z,35.50
2017-09-26T19:39:15.008Z,34.33
2017-09-26T19:41:42.916Z,35.90
2017-09-26T19:44:09.292Z,36.10
2017-09-26T19:46:35.899Z,36.43
2017-09-26T19:49:02.270Z,35.33
2017-09-26T19:51:28.690Z,35.60
2017-09-26T19:53:55.045Z,34.60
2017-09-26T19:56:22.250Z,36.30
2017-09-26T19:58:48.755Z,34.20
2017-09-26T20:01:15.139Z,35.27
2017-09-26T20:03:41.456Z,35.67
2017-09-26T20:06:07.966Z,38.17
2017-09-26T20:08:34.318Z,35.87
2017-09-26T20:11:00.901Z,38.20
2017-09-26T20:13:27.997Z,36.50
2017-09-26T20:15:54.393Z,36.17
2017-09-26T20:18:21.486Z,36.10
2017-09-26T20:20:47.924Z,34.93
2017-09-26T20:23:14.441Z,35.90
2017-09-26T20:25:40.933Z,36.70
2017-09-26T20:28:07.289Z,37.10
2017-09-26T20:30:34.586Z,36.27
2017-09-26T20:33:01.679Z,37.13
2017-09-26T20:35:28.025Z,39.17
2017-09-26T20:37:54.317Z,36.33
2017-09-26T20:40:22.141Z,35.47
2017-09-26T20:42:48.430Z,38.00
2017-09-26T20:45:15.483Z,36.63
2017-09-26T20:47:41.817Z,37.90
2017-09-26T20:50:08.940Z,38.43
2017-09-26T20:52:35.975Z,38.23
2017-09-26T20:55:02.263Z,36.47
2017-09-26T20:57:28.566Z,37.70
2017-09-26T20:59:55.632Z,39.50
2017-09-26T21:02:21.951Z,39.37
2017-09-26T21:04:48.248Z,38.03
2017-09-26T21:07:14.553Z,38.07
2017-09-26T21:09:40.842Z,38.67
2017-09-26T21:12:07.136Z,37.87
2017-09-26T21:14:33.410Z,40.53
2017-09-26T21:16:59.729Z,39.43
2017-09-26T21:19:25.998Z,39.23
2017-09-26T21:21:52.308Z,39.50
2017-09-26T21:24:18.615Z,39.53
2017-09-26T21:26:44.897Z,38.63
2017-09-26T21:29:11.179Z,39.57
2017-09-26T21:31:37.461Z,39.70
2017-09-26T21:34:04.498Z,36.93
2017-09-26T21:36:30.837Z,41.27
2017-09-26T21:38:57.126Z,39.97
2017-09-26T21:41:23.415Z,38.83
2017-09-26T21:43:50.454Z,39.10
2017-09-26T21:46:16.725Z,37.63
2017-09-26T21:48:43.010Z,37.57
2017-09-26T21:51:09.418Z,38.80
2017-09-26T21:53:36.600Z,39.43
2017-09-26T21:56:04.250Z,39.83
2017-09-26T21:58:31.286Z,38.63
2017-09-26T22:00:57.596Z,38.80
2017-09-26T22:03:23.893Z,38.00
2017-09-26T22:05:50.178Z,38.67
2017-09-26T22:08:16.522Z,39.70
2017-09-26T22:10:43.549Z,38.67
2017-09-26T22:13:09.837Z,37.23
2017-09-26T22:15:36.111Z,40.07
2017-09-26T22:18:03.154Z,38.60
2017-09-26T22:20:29.421Z,39.00
2017-09-26T22:22:56.466Z,40.17
2017-09-26T22:25:23.478Z,37.03
2017-09-26T22:27:49.754Z,36.53
2017-09-26T22:30:16.079Z,40.63
2017-09-26T22:32:43.102Z,38.37
2017-09-26T22:35:10.141Z,39.63
2017-09-26T22:37:37.165Z,38.57
2017-09-26T22:40:03.464Z,37.47
2017-09-26T22:42:30.002Z,38.50
2017-09-26T22:44:56.832Z,38.57
2017-09-26T22:47:23.201Z,37.60
2017-09-26T22:49:49.500Z,37.37
2017-09-26T22:52:15.840Z,38.93
2017-09-26T22:54:42.149Z,37.80
2017-09-26T22:57:09.164Z,39.07
2017-09-26T22:59:36.289Z,37.20
2017-09-26T23:02:03.142Z,36.33
2017-09-26T23:04:29.905Z,37.37
2017-09-26T23:06:56.943Z,38.17
2017-09-26T23:09:23.966Z,38.67
2017-09-26T23:11:50.253Z,39.30
2017-09-26T23:14:16.533Z,38.77
2017-09-26T23:16:42.839Z,42.13
2017-09-26T23:19:09.121Z,39.50
2017-09-26T23:21:36.149Z,42.10
2017-09-26T23:24:02.441Z,39.43
2017-09-26T23:26:28.772Z,38.90
2017-09-26T23:28:55.045Z,39.20
2017-09-26T23:31:22.088Z,39.80
2017-09-26T23:33:49.122Z,39.53
2017-09-26T23:36:15.443Z,41.17
2017-09-26T23:38:41.750Z,39.60
2017-09-26T23:41:08.043Z,39.17
2017-09-26T23:43:35.076Z,39.90
2017-09-26T23:46:02.853Z,39.93
2017-09-26T23:48:29.877Z,40.40
2017-09-26T23:50:57.643Z,38.60
2017-09-26T23:53:23.987Z,39.27
2017-09-26T23:55:51.035Z,40.13
2017-09-26T23:58:18.077Z,42.17
